sensor_id;sensor_type;location;lat;lon;timestamp;temperature;humidity
9201;DHT22;4635;48.686;9.008;2022-09-02T00:00:41;14.00;99.90
9201;DHT22;4635;48.686;9.008;2022-09-02T00:03:08;14.00;30.50
9201;DHT22;4635;48.686;9.008;2022-09-02T00:05:35;13.90;1.00
9201;DHT22;4635;48.686;9.008;2022-09-02T00:08:02;14.10;1.00
9201;DHT22;4635;48.686;9.008;2022-09-02T00:10:30;13.90;23.00
9201;DHT22;4635;48.686;9.008;2022-09-02T00:13:01;13.90;1.00
9201;DHT22;4635;48.686;9.008;2022-09-02T00:15:28;13.90;1.00
9201;DHT22;4635;48.686;9.008;2022-09-02T00:17:58;13.90;1.00
9201;DHT22;4635;48.686;9.008;2022-09-02T00:20:25;13.90;1.00
9201;DHT22;4635;48.686;9.008;2022-09-02T00:22:53;13.90;1.00
9201;DHT22;4635;48.686;9.008;2022-09-02T00:25:20;13.90;1.00
9201;DHT22;4635;48.686;9.008;2022-09-02T00:27:48;13.90;99.90
9201;DHT22;4635;48.686;9.008;2022-09-02T00:30:16;13.70;1.00
9201;DHT22;4635;48.686;9.008;2022-09-02T00:32:46;13.70;1.00
9201;DHT22;4635;48.686;9.008;2022-09-02T00:35:13;13.70;1.00
9201;DHT22;4635;48.686;9.008;2022-09-02T00:37:40;13.60;1.00
9201;DHT22;4635;48.686;9.008;2022-09-02T00:40:09;13.60;34.50
9201;DHT22;4635;48.686;9.008;2022-09-02T00:42:36;13.50;16.10
9201;DHT22;4635;48.686;9.008;2022-09-02T00:45:04;13.40;99.90
9201;DHT22;4635;48.686;9.008;2022-09-02T00:47:33;13.40;99.90
9201;DHT22;4635;48.686;9.008;2022-09-02T00:50:03;13.30;99.90
9201;DHT22;4635;48.686;9.008;2022-09-02T00:52:34;13.30;99.90
9201;DHT22;4635;48.686;9.008;2022-09-02T00:55:05;13.20;1.00
9201;DHT22;4635;48.686;9.008;2022-09-02T00:57:35;13.20;1.00
9201;DHT22;4635;48.686;9.008;2022-09-02T01:00:07;13.20;1.00
9201;DHT22;4635;48.686;9.008;2022-09-02T01:02:39;13.10;1.00
9201;DHT22;4635;48.686;9.008;2022-09-02T01:05:09;13.10;1.00
9201;DHT22;4635;48.686;9.008;2022-09-02T01:07:38;13.10;1.00
9201;DHT22;4635;48.686;9.008;2022-09-02T01:10:08;13.10;1.00
9201;DHT22;4635;48.686;9.008;2022-09-02T01:12:35;13.10;1.00
9201;DHT22;4635;48.686;9.008;2022-09-02T01:15:08;13.10;1.00
9201;DHT22;4635;48.686;9.008;2022-09-02T01:17:47;13.10;1.00
9201;DHT22;4635;48.686;9.008;2022-09-02T01:20:18;13.10;1.00
9201;DHT22;4635;48.686;9.008;2022-09-02T01:22:47;13.10;1.00
9201;DHT22;4635;48.686;9.008;2022-09-02T01:25:17;12.90;1.00
9201;DHT22;4635;48.686;9.008;2022-09-02T01:27:45;13.00;1.00
9201;DHT22;4635;48.686;9.008;2022-09-02T01:30:16;13.00;1.00
9201;DHT22;4635;48.686;9.008;2022-09-02T01:32:43;13.00;1.00
9201;DHT22;4635;48.686;9.008;2022-09-02T01:35:10;12.90;1.00
9201;DHT22;4635;48.686;9.008;2022-09-02T01:37:38;12.90;1.00
9201;DHT22;4635;48.686;9.008;2022-09-02T01:40:09;12.80;1.00
9201;DHT22;4635;48.686;9.008;2022-09-02T01:42:37;12.80;1.00
9201;DHT22;4635;48.686;9.008;2022-09-02T01:45:05;12.70;1.00
9201;DHT22;4635;48.686;9.008;2022-09-02T01:47:35;12.70;1.00
9201;DHT22;4635;48.686;9.008;2022-09-02T01:50:03;12.60;1.00
9201;DHT22;4635;48.686;9.008;2022-09-02T01:52:30;12.50;1.00
9201;DHT22;4635;48.686;9.008;2022-09-02T01:54:58;12.50;1.00
9201;DHT22;4635;48.686;9.008;2022-09-02T01:57:27;12.50;1.00
9201;DHT22;4635;48.686;9.008;2022-09-02T01:59:54;12.50;1.00
9201;DHT22;4635;48.686;9.008;2022-09-02T02:02:21;12.50;1.00
9201;DHT22;4635;48.686;9.008;2022-09-02T02:04:49;12.50;1.00
9201;DHT22;4635;48.686;9.008;2022-09-02T02:07:20;12.50;1.00
9201;DHT22;4635;48.686;9.008;2022-09-02T02:09:48;12.50;1.00
9201;DHT22;4635;48.686;9.008;2022-09-02T02:12:18;12.50;1.00
9201;DHT22;4635;48.686;9.008;2022-09-02T02:14:47;12.50;1.00
9201;DHT22;4635;48.686;9.008;2022-09-02T02:17:14;12.50;1.00
9201;DHT22;4635;48.686;9.008;2022-09-02T02:19:42;12.40;1.00
9201;DHT22;4635;48.686;9.008;2022-09-02T02:22:09;12.40;1.00
9201;DHT22;4635;48.686;9.008;2022-09-02T02:24:37;12.40;1.00
9201;DHT22;4635;48.686;9.008;2022-09-02T02:27:04;12.40;1.00
9201;DHT22;4635;48.686;9.008;2022-09-02T02:29:31;12.40;1.00
9201;DHT22;4635;48.686;9.008;2022-09-02T02:32:00;12.40;1.00
9201;DHT22;4635;48.686;9.008;2022-09-02T02:34:27;12.40;1.00
9201;DHT22;4635;48.686;9.008;2022-09-02T02:36:54;12.40;1.00
9201;DHT22;4635;48.686;9.008;2022-09-02T02:39:21;12.30;1.00
9201;DHT22;4635;48.686;9.008;2022-09-02T02:41:48;12.40;1.00
9201;DHT22;4635;48.686;9.008;2022-09-02T02:44:15;12.40;1.00
9201;DHT22;4635;48.686;9.008;2022-09-02T02:46:43;12.30;1.00
9201;DHT22;4635;48.686;9.008;2022-09-02T02:49:11;12.40;1.00
9201;DHT22;4635;48.686;9.008;2022-09-02T02:51:40;12.40;1.00
9201;DHT22;4635;48.686;9.008;2022-09-02T02:54:07;12.30;1.00
9201;DHT22;4635;48.686;9.008;2022-09-02T02:56:35;12.20;1.00
9201;DHT22;4635;48.686;9.008;2022-09-02T02:59:02;12.20;1.00
9201;DHT22;4635;48.686;9.008;2022-09-02T03:01:30;12.20;1.00
9201;DHT22;4635;48.686;9.008;2022-09-02T03:03:57;12.20;1.00
9201;DHT22;4635;48.686;9.008;2022-09-02T03:06:26;12.10;1.00
9201;DHT22;4635;48.686;9.008;2022-09-02T03:08:54;12.20;1.00
9201;DHT22;4635;48.686;9.008;2022-09-02T03:11:22;12.20;1.00
9201;DHT22;4635;48.686;9.008;2022-09-02T03:13:51;12.20;1.00
9201;DHT22;4635;48.686;9.008;2022-09-02T03:16:18;12.10;1.00
9201;DHT22;4635;48.686;9.008;2022-09-02T03:18:46;12.10;1.00
9201;DHT22;4635;48.686;9.008;2022-09-02T03:21:13;12.10;1.00
9201;DHT22;4635;48.686;9.008;2022-09-02T03:23:42;12.10;1.00
9201;DHT22;4635;48.686;9.008;2022-09-02T03:26:11;12.10;1.00
9201;DHT22;4635;48.686;9.008;2022-09-02T03:28:39;12.10;1.00
9201;DHT22;4635;48.686;9.008;2022-09-02T03:31:07;12.00;1.00
9201;DHT22;4635;48.686;9.008;2022-09-02T03:33:38;12.00;1.00
9201;DHT22;4635;48.686;9.008;2022-09-02T03:36:06;12.00;1.00
9201;DHT22;4635;48.686;9.008;2022-09-02T03:38:34;12.00;1.00
9201;DHT22;4635;48.686;9.008;2022-09-02T03:41:10;12.00;1.00
9201;DHT22;4635;48.686;9.008;2022-09-02T03:43:37;12.10;1.00
9201;DHT22;4635;48.686;9.008;2022-09-02T03:46:04;11.90;1.00
9201;DHT22;4635;48.686;9.008;2022-09-02T03:48:31;11.90;1.00
9201;DHT22;4635;48.686;9.008;2022-09-02T03:51:01;11.80;1.00
9201;DHT22;4635;48.686;9.008;2022-09-02T03:53:28;11.90;1.00
9201;DHT22;4635;48.686;9.008;2022-09-02T03:55:57;11.90;1.00
9201;DHT22;4635;48.686;9.008;2022-09-02T03:58:26;11.90;1.00
9201;DHT22;4635;48.686;9.008;2022-09-02T04:00:53;11.90;1.00
9201;DHT22;4635;48.686;9.008;2022-09-02T04:03:21;11.80;1.00
9201;DHT22;4635;48.686;9.008;2022-09-02T04:05:48;11.80;1.00
9201;DHT22;4635;48.686;9.008;2022-09-02T04:08:17;11.70;1.00
9201;DHT22;4635;48.686;9.008;2022-09-02T04:10:47;11.70;1.00
9201;DHT22;4635;48.686;9.008;2022-09-02T04:13:14;11.70;1.00
9201;DHT22;4635;48.686;9.008;2022-09-02T04:15:45;11.70;1.00
9201;DHT22;4635;48.686;9.008;2022-09-02T04:18:14;11.70;1.00
9201;DHT22;4635;48.686;9.008;2022-09-02T04:20:42;11.60;1.00
9201;DHT22;4635;48.686;9.008;2022-09-02T04:23:09;11.60;1.00
9201;DHT22;4635;48.686;9.008;2022-09-02T04:25:39;11.60;1.00
9201;DHT22;4635;48.686;9.008;2022-09-02T04:28:06;11.60;1.00
9201;DHT22;4635;48.686;9.008;2022-09-02T04:30:33;11.60;1.00
9201;DHT22;4635;48.686;9.008;2022-09-02T04:33:05;11.50;1.00
9201;DHT22;4635;48.686;9.008;2022-09-02T04:35:32;11.50;1.00
9201;DHT22;4635;48.686;9.008;2022-09-02T04:38:00;11.50;1.00
9201;DHT22;4635;48.686;9.008;2022-09-02T04:40:30;11.40;1.00
9201;DHT22;4635;48.686;9.008;2022-09-02T04:42:57;11.30;1.00
9201;DHT22;4635;48.686;9.008;2022-09-02T04:45:25;11.30;1.00
9201;DHT22;4635;48.686;9.008;2022-09-02T04:47:52;11.30;1.00
9201;DHT22;4635;48.686;9.008;2022-09-02T04:50:21;11.30;1.00
9201;DHT22;4635;48.686;9.008;2022-09-02T04:52:48;11.30;1.00
9201;DHT22;4635;48.686;9.008;2022-09-02T04:55:15;11.50;1.00
9201;DHT22;4635;48.686;9.008;2022-09-02T04:57:42;11.30;1.00
9201;DHT22;4635;48.686;9.008;2022-09-02T05:00:13;11.30;1.00
9201;DHT22;4635;48.686;9.008;2022-09-02T05:02:40;11.30;1.00
9201;DHT22;4635;48.686;9.008;2022-09-02T05:05:08;11.40;1.00
9201;DHT22;4635;48.686;9.008;2022-09-02T05:07:37;11.30;1.00
9201;DHT22;4635;48.686;9.008;2022-09-02T05:10:06;11.30;1.00
9201;DHT22;4635;48.686;9.008;2022-09-02T05:12:34;11.30;1.00
9201;DHT22;4635;48.686;9.008;2022-09-02T05:15:02;11.40;1.00
9201;DHT22;4635;48.686;9.008;2022-09-02T05:17:30;11.40;1.00
9201;DHT22;4635;48.686;9.008;2022-09-02T05:19:57;11.40;1.00
9201;DHT22;4635;48.686;9.008;2022-09-02T05:22:24;11.30;1.00
9201;DHT22;4635;48.686;9.008;2022-09-02T05:24:55;11.30;1.00
9201;DHT22;4635;48.686;9.008;2022-09-02T05:27:23;11.40;1.00
9201;DHT22;4635;48.686;9.008;2022-09-02T05:29:55;11.40;1.00
9201;DHT22;4635;48.686;9.008;2022-09-02T05:32:24;11.50;1.00
9201;DHT22;4635;48.686;9.008;2022-09-02T05:34:52;11.50;1.00
9201;DHT22;4635;48.686;9.008;2022-09-02T05:37:19;11.60;1.00
9201;DHT22;4635;48.686;9.008;2022-09-02T05:39:46;11.60;1.00
9201;DHT22;4635;48.686;9.008;2022-09-02T05:42:16;11.60;1.00
9201;DHT22;4635;48.686;9.008;2022-09-02T05:44:45;11.60;1.00
9201;DHT22;4635;48.686;9.008;2022-09-02T05:47:12;11.70;1.00
9201;DHT22;4635;48.686;9.008;2022-09-02T05:49:39;11.80;1.00
9201;DHT22;4635;48.686;9.008;2022-09-02T05:52:06;11.90;1.00
9201;DHT22;4635;48.686;9.008;2022-09-02T05:54:36;12.00;1.00
9201;DHT22;4635;48.686;9.008;2022-09-02T05:57:07;11.70;1.00
9201;DHT22;4635;48.686;9.008;2022-09-02T05:59:37;12.10;99.90
9201;DHT22;4635;48.686;9.008;2022-09-02T06:02:10;12.20;99.90
9201;DHT22;4635;48.686;9.008;2022-09-02T06:04:38;12.30;99.90
9201;DHT22;4635;48.686;9.008;2022-09-02T06:07:06;12.50;99.90
9201;DHT22;4635;48.686;9.008;2022-09-02T06:09:33;12.70;1.00
9201;DHT22;4635;48.686;9.008;2022-09-02T06:12:01;12.80;1.00
9201;DHT22;4635;48.686;9.008;2022-09-02T06:14:28;13.00;1.00
9201;DHT22;4635;48.686;9.008;2022-09-02T06:16:57;13.10;1.00
9201;DHT22;4635;48.686;9.008;2022-09-02T06:19:26;13.20;1.00
9201;DHT22;4635;48.686;9.008;2022-09-02T06:21:55;13.40;99.90
9201;DHT22;4635;48.686;9.008;2022-09-02T06:24:23;13.60;1.00
9201;DHT22;4635;48.686;9.008;2022-09-02T06:26:51;13.80;1.00
9201;DHT22;4635;48.686;9.008;2022-09-02T06:29:19;14.00;1.00
9201;DHT22;4635;48.686;9.008;2022-09-02T06:31:48;14.40;99.90
9201;DHT22;4635;48.686;9.008;2022-09-02T06:34:19;14.80;1.00
9201;DHT22;4635;48.686;9.008;2022-09-02T06:36:48;14.90;99.90
9201;DHT22;4635;48.686;9.008;2022-09-02T06:39:19;14.80;1.00
9201;DHT22;4635;48.686;9.008;2022-09-02T06:41:49;14.70;1.00
9201;DHT22;4635;48.686;9.008;2022-09-02T06:44:17;14.70;1.00
9201;DHT22;4635;48.686;9.008;2022-09-02T06:46:47;14.70;1.00
9201;DHT22;4635;48.686;9.008;2022-09-02T06:49:17;14.80;99.90
9201;DHT22;4635;48.686;9.008;2022-09-02T06:51:54;14.80;99.90
9201;DHT22;4635;48.686;9.008;2022-09-02T06:54:37;14.30;99.90
9201;DHT22;4635;48.686;9.008;2022-09-02T06:57:08;15.00;99.90
9201;DHT22;4635;48.686;9.008;2022-09-02T06:59:42;15.00;27.70
9201;DHT22;4635;48.686;9.008;2022-09-02T07:02:09;15.10;1.00
9201;DHT22;4635;48.686;9.008;2022-09-02T07:04:39;15.20;1.00
9201;DHT22;4635;48.686;9.008;2022-09-02T07:07:27;15.20;1.00
9201;DHT22;4635;48.686;9.008;2022-09-02T07:09:56;15.40;1.00
9201;DHT22;4635;48.686;9.008;2022-09-02T07:12:24;15.50;1.00
9201;DHT22;4635;48.686;9.008;2022-09-02T07:14:54;15.60;1.00
9201;DHT22;4635;48.686;9.008;2022-09-02T07:17:26;15.60;1.00
9201;DHT22;4635;48.686;9.008;2022-09-02T07:19:59;15.60;1.00
9201;DHT22;4635;48.686;9.008;2022-09-02T07:22:29;15.60;1.00
9201;DHT22;4635;48.686;9.008;2022-09-02T07:24:59;15.60;1.00
9201;DHT22;4635;48.686;9.008;2022-09-02T07:27:27;15.80;1.00
9201;DHT22;4635;48.686;9.008;2022-09-02T07:29:54;15.90;1.00
9201;DHT22;4635;48.686;9.008;2022-09-02T07:32:24;15.90;1.00
9201;DHT22;4635;48.686;9.008;2022-09-02T07:34:51;16.20;1.00
9201;DHT22;4635;48.686;9.008;2022-09-02T07:37:21;16.30;1.00
9201;DHT22;4635;48.686;9.008;2022-09-02T07:39:52;16.30;1.00
9201;DHT22;4635;48.686;9.008;2022-09-02T07:42:25;16.20;1.00
9201;DHT22;4635;48.686;9.008;2022-09-02T07:44:59;16.30;1.00
9201;DHT22;4635;48.686;9.008;2022-09-02T07:47:27;16.40;1.00
9201;DHT22;4635;48.686;9.008;2022-09-02T07:49:59;16.60;1.00
9201;DHT22;4635;48.686;9.008;2022-09-02T07:52:43;16.50;1.00
9201;DHT22;4635;48.686;9.008;2022-09-02T07:55:12;16.60;1.00
9201;DHT22;4635;48.686;9.008;2022-09-02T07:57:42;16.60;1.00
9201;DHT22;4635;48.686;9.008;2022-09-02T08:00:11;16.40;1.00
9201;DHT22;4635;48.686;9.008;2022-09-02T08:02:39;17.90;99.90
9201;DHT22;4635;48.686;9.008;2022-09-02T08:05:07;19.00;1.00
9201;DHT22;4635;48.686;9.008;2022-09-02T08:07:41;19.40;1.00
9201;DHT22;4635;48.686;9.008;2022-09-02T08:10:12;19.80;99.90
9201;DHT22;4635;48.686;9.008;2022-09-02T08:12:41;19.70;1.00
9201;DHT22;4635;48.686;9.008;2022-09-02T08:15:10;20.10;99.90
9201;DHT22;4635;48.686;9.008;2022-09-02T08:17:39;21.50;99.90
9201;DHT22;4635;48.686;9.008;2022-09-02T08:20:09;21.80;99.90
9201;DHT22;4635;48.686;9.008;2022-09-02T08:22:37;22.10;96.80
9201;DHT22;4635;48.686;9.008;2022-09-02T08:25:07;21.10;99.90
9201;DHT22;4635;48.686;9.008;2022-09-02T08:27:38;20.70;1.00
9201;DHT22;4635;48.686;9.008;2022-09-02T08:30:14;20.90;1.00
9201;DHT22;4635;48.686;9.008;2022-09-02T08:32:42;20.70;1.00
9201;DHT22;4635;48.686;9.008;2022-09-02T08:35:10;21.60;1.00
9201;DHT22;4635;48.686;9.008;2022-09-02T08:37:37;21.90;1.00
9201;DHT22;4635;48.686;9.008;2022-09-02T08:40:13;21.70;99.90
9201;DHT22;4635;48.686;9.008;2022-09-02T08:42:44;21.90;99.90
9201;DHT22;4635;48.686;9.008;2022-09-02T08:45:17;22.30;99.90
9201;DHT22;4635;48.686;9.008;2022-09-02T08:47:49;21.70;1.00
9201;DHT22;4635;48.686;9.008;2022-09-02T08:50:19;22.10;1.00
9201;DHT22;4635;48.686;9.008;2022-09-02T08:52:55;21.50;1.00
9201;DHT22;4635;48.686;9.008;2022-09-02T08:55:30;22.00;1.00
9201;DHT22;4635;48.686;9.008;2022-09-02T08:57:59;23.10;1.00
9201;DHT22;4635;48.686;9.008;2022-09-02T09:00:28;22.30;1.00
9201;DHT22;4635;48.686;9.008;2022-09-02T09:03:01;22.30;99.90
9201;DHT22;4635;48.686;9.008;2022-09-02T09:05:39;23.20;1.00
9201;DHT22;4635;48.686;9.008;2022-09-02T09:08:15;24.10;99.90
9201;DHT22;4635;48.686;9.008;2022-09-02T09:10:58;24.10;1.00
9201;DHT22;4635;48.686;9.008;2022-09-02T09:16:30;22.30;12.80
9201;DHT22;4635;48.686;9.008;2022-09-02T09:19:02;22.70;99.90
9201;DHT22;4635;48.686;9.008;2022-09-02T09:21:33;22.90;1.00
9201;DHT22;4635;48.686;9.008;2022-09-02T09:24:07;23.30;58.90
9201;DHT22;4635;48.686;9.008;2022-09-02T09:26:41;23.80;1.00
9201;DHT22;4635;48.686;9.008;2022-09-02T09:29:13;23.30;1.00
9201;DHT22;4635;48.686;9.008;2022-09-02T09:31:47;24.40;99.90
9201;DHT22;4635;48.686;9.008;2022-09-02T09:34:59;24.70;1.00
9201;DHT22;4635;48.686;9.008;2022-09-02T09:37:33;25.30;1.00
9201;DHT22;4635;48.686;9.008;2022-09-02T09:40:35;25.30;1.00
9201;DHT22;4635;48.686;9.008;2022-09-02T09:43:24;24.70;99.90
9201;DHT22;4635;48.686;9.008;2022-09-02T09:46:27;26.00;99.90
9201;DHT22;4635;48.686;9.008;2022-09-02T09:49:16;27.40;1.00
9201;DHT22;4635;48.686;9.008;2022-09-02T09:51:58;26.90;99.90
9201;DHT22;4635;48.686;9.008;2022-09-02T09:54:41;25.00;99.90
9201;DHT22;4635;48.686;9.008;2022-09-02T09:57:19;24.10;1.00
9201;DHT22;4635;48.686;9.008;2022-09-02T09:59:54;24.10;99.90
9201;DHT22;4635;48.686;9.008;2022-09-02T10:02:34;24.40;99.90
9201;DHT22;4635;48.686;9.008;2022-09-02T10:05:26;24.50;99.90
9201;DHT22;4635;48.686;9.008;2022-09-02T10:08:00;23.30;99.90
9201;DHT22;4635;48.686;9.008;2022-09-02T10:10:39;22.20;1.00
9201;DHT22;4635;48.686;9.008;2022-09-02T10:13:20;23.20;1.00
9201;DHT22;4635;48.686;9.008;2022-09-02T10:16:04;24.40;1.00
9201;DHT22;4635;48.686;9.008;2022-09-02T10:18:39;25.10;45.10
9201;DHT22;4635;48.686;9.008;2022-09-02T10:21:16;25.60;1.00
9201;DHT22;4635;48.686;9.008;2022-09-02T10:23:53;25.60;1.00
9201;DHT22;4635;48.686;9.008;2022-09-02T10:26:36;26.50;1.00
9201;DHT22;4635;48.686;9.008;2022-09-02T10:29:27;25.80;1.00
9201;DHT22;4635;48.686;9.008;2022-09-02T10:32:18;25.00;1.00
9201;DHT22;4635;48.686;9.008;2022-09-02T10:35:06;24.30;99.90
9201;DHT22;4635;48.686;9.008;2022-09-02T10:37:46;24.40;1.00
9201;DHT22;4635;48.686;9.008;2022-09-02T10:40:22;24.50;1.00
9201;DHT22;4635;48.686;9.008;2022-09-02T10:42:59;26.50;98.10
9201;DHT22;4635;48.686;9.008;2022-09-02T10:45:33;25.20;94.60
9201;DHT22;4635;48.686;9.008;2022-09-02T10:48:21;25.90;1.00
9201;DHT22;4635;48.686;9.008;2022-09-02T10:50:54;25.60;1.00
9201;DHT22;4635;48.686;9.008;2022-09-02T10:53:46;25.50;99.90
9201;DHT22;4635;48.686;9.008;2022-09-02T10:56:25;26.50;1.00
9201;DHT22;4635;48.686;9.008;2022-09-02T10:59:10;25.60;1.00
9201;DHT22;4635;48.686;9.008;2022-09-02T11:01:51;25.50;1.00
9201;DHT22;4635;48.686;9.008;2022-09-02T11:04:39;26.20;99.90
9201;DHT22;4635;48.686;9.008;2022-09-02T11:07:15;26.20;91.20
9201;DHT22;4635;48.686;9.008;2022-09-02T11:09:51;25.60;99.90
9201;DHT22;4635;48.686;9.008;2022-09-02T11:12:33;25.10;99.90
9201;DHT22;4635;48.686;9.008;2022-09-02T11:15:08;25.80;1.00
9201;DHT22;4635;48.686;9.008;2022-09-02T11:17:43;26.70;1.00
9201;DHT22;4635;48.686;9.008;2022-09-02T11:20:21;26.30;1.00
9201;DHT22;4635;48.686;9.008;2022-09-02T11:22:59;25.30;93.00
9201;DHT22;4635;48.686;9.008;2022-09-02T11:25:31;24.60;1.00
9201;DHT22;4635;48.686;9.008;2022-09-02T11:28:05;26.20;99.90
9201;DHT22;4635;48.686;9.008;2022-09-02T11:30:42;25.80;99.90
9201;DHT22;4635;48.686;9.008;2022-09-02T11:33:16;26.10;99.90
9201;DHT22;4635;48.686;9.008;2022-09-02T11:35:46;24.80;1.00
9201;DHT22;4635;48.686;9.008;2022-09-02T11:38:34;25.40;1.00
9201;DHT22;4635;48.686;9.008;2022-09-02T11:41:18;25.70;99.90
9201;DHT22;4635;48.686;9.008;2022-09-02T11:43:54;26.40;99.90
9201;DHT22;4635;48.686;9.008;2022-09-02T11:46:45;27.40;1.00
9201;DHT22;4635;48.686;9.008;2022-09-02T11:49:50;28.00;1.00
9201;DHT22;4635;48.686;9.008;2022-09-02T11:52:39;30.50;99.90
9201;DHT22;4635;48.686;9.008;2022-09-02T11:55:15;28.10;1.00
9201;DHT22;4635;48.686;9.008;2022-09-02T11:57:51;27.50;1.00
9201;DHT22;4635;48.686;9.008;2022-09-02T12:00:29;27.70;1.00
9201;DHT22;4635;48.686;9.008;2022-09-02T12:03:16;25.10;99.90
9201;DHT22;4635;48.686;9.008;2022-09-02T12:06:04;25.90;99.90
9201;DHT22;4635;48.686;9.008;2022-09-02T12:09:04;27.30;99.90
9201;DHT22;4635;48.686;9.008;2022-09-02T12:11:43;28.30;99.90
9201;DHT22;4635;48.686;9.008;2022-09-02T12:26:28;28.20;99.90
9201;DHT22;4635;48.686;9.008;2022-09-02T12:29:10;28.30;1.00
9201;DHT22;4635;48.686;9.008;2022-09-02T12:31:42;28.60;1.00
9201;DHT22;4635;48.686;9.008;2022-09-02T12:34:54;27.50;1.00
9201;DHT22;4635;48.686;9.008;2022-09-02T12:37:50;28.30;87.80
9201;DHT22;4635;48.686;9.008;2022-09-02T12:40:35;30.70;1.00
9201;DHT22;4635;48.686;9.008;2022-09-02T12:43:28;30.50;1.00
9201;DHT22;4635;48.686;9.008;2022-09-02T12:46:11;29.40;1.00
9201;DHT22;4635;48.686;9.008;2022-09-02T12:48:49;27.50;1.00
9201;DHT22;4635;48.686;9.008;2022-09-02T12:51:53;26.90;1.00
9201;DHT22;4635;48.686;9.008;2022-09-02T12:54:34;28.80;1.00
9201;DHT22;4635;48.686;9.008;2022-09-02T12:57:04;29.90;1.00
9201;DHT22;4635;48.686;9.008;2022-09-02T12:59:37;29.10;1.00
9201;DHT22;4635;48.686;9.008;2022-09-02T13:02:30;29.60;1.00
9201;DHT22;4635;48.686;9.008;2022-09-02T13:05:17;29.30;1.00
9201;DHT22;4635;48.686;9.008;2022-09-02T13:11:54;29.20;1.00
9201;DHT22;4635;48.686;9.008;2022-09-02T13:14:55;31.70;1.00
9201;DHT22;4635;48.686;9.008;2022-09-02T13:17:46;30.10;1.00
9201;DHT22;4635;48.686;9.008;2022-09-02T13:24:04;30.00;1.00
9201;DHT22;4635;48.686;9.008;2022-09-02T13:30:04;28.70;1.00
9201;DHT22;4635;48.686;9.008;2022-09-02T13:32:37;28.60;1.00
9201;DHT22;4635;48.686;9.008;2022-09-02T13:35:07;30.50;1.00
9201;DHT22;4635;48.686;9.008;2022-09-02T13:37:41;29.60;1.00
9201;DHT22;4635;48.686;9.008;2022-09-02T13:40:27;31.10;1.00
9201;DHT22;4635;48.686;9.008;2022-09-02T13:43:14;30.30;1.00
9201;DHT22;4635;48.686;9.008;2022-09-02T13:45:48;28.40;1.00
9201;DHT22;4635;48.686;9.008;2022-09-02T13:48:18;27.60;1.00
9201;DHT22;4635;48.686;9.008;2022-09-02T13:50:48;26.10;1.00
9201;DHT22;4635;48.686;9.008;2022-09-02T13:53:33;25.70;1.00
9201;DHT22;4635;48.686;9.008;2022-09-02T13:56:07;24.50;1.00
9201;DHT22;4635;48.686;9.008;2022-09-02T13:58:39;23.70;1.00
9201;DHT22;4635;48.686;9.008;2022-09-02T14:01:32;23.40;1.00
9201;DHT22;4635;48.686;9.008;2022-09-02T14:04:10;23.20;1.00
9201;DHT22;4635;48.686;9.008;2022-09-02T14:06:48;23.10;99.90
9201;DHT22;4635;48.686;9.008;2022-09-02T14:09:25;23.10;1.00
9201;DHT22;4635;48.686;9.008;2022-09-02T14:12:02;23.00;99.90
9201;DHT22;4635;48.686;9.008;2022-09-02T14:14:32;23.00;1.00
9201;DHT22;4635;48.686;9.008;2022-09-02T14:17:25;23.00;99.90
9201;DHT22;4635;48.686;9.008;2022-09-02T14:20:19;22.90;61.80
9201;DHT22;4635;48.686;9.008;2022-09-02T14:22:56;23.10;99.90
9201;DHT22;4635;48.686;9.008;2022-09-02T14:25:29;23.20;1.00
9201;DHT22;4635;48.686;9.008;2022-09-02T14:28:10;23.30;1.00
9201;DHT22;4635;48.686;9.008;2022-09-02T14:31:22;23.20;99.90
9201;DHT22;4635;48.686;9.008;2022-09-02T14:33:56;23.10;46.10
9201;DHT22;4635;48.686;9.008;2022-09-02T14:36:36;23.30;1.00
9201;DHT22;4635;48.686;9.008;2022-09-02T14:39:20;23.00;1.00
9201;DHT22;4635;48.686;9.008;2022-09-02T14:41:56;23.00;1.00
9201;DHT22;4635;48.686;9.008;2022-09-02T14:44:30;22.90;1.50
9201;DHT22;4635;48.686;9.008;2022-09-02T14:47:00;22.80;22.50
9201;DHT22;4635;48.686;9.008;2022-09-02T14:49:32;23.00;99.90
9201;DHT22;4635;48.686;9.008;2022-09-02T14:52:23;23.00;31.50
9201;DHT22;4635;48.686;9.008;2022-09-02T14:55:07;22.80;1.00
9201;DHT22;4635;48.686;9.008;2022-09-02T14:58:13;22.80;99.90
9201;DHT22;4635;48.686;9.008;2022-09-02T15:00:45;22.80;1.00
9201;DHT22;4635;48.686;9.008;2022-09-02T15:03:21;22.70;1.00
9201;DHT22;4635;48.686;9.008;2022-09-02T15:05:58;22.80;1.00
9201;DHT22;4635;48.686;9.008;2022-09-02T15:08:38;22.90;1.00
9201;DHT22;4635;48.686;9.008;2022-09-02T15:14:09;23.10;47.60
9201;DHT22;4635;48.686;9.008;2022-09-02T15:16:51;22.90;43.30
9201;DHT22;4635;48.686;9.008;2022-09-02T15:19:26;22.90;1.00
9201;DHT22;4635;48.686;9.008;2022-09-02T15:22:12;23.00;1.00
9201;DHT22;4635;48.686;9.008;2022-09-02T15:24:48;23.00;1.00
9201;DHT22;4635;48.686;9.008;2022-09-02T15:27:19;23.00;1.00
9201;DHT22;4635;48.686;9.008;2022-09-02T15:29:58;22.60;1.00
9201;DHT22;4635;48.686;9.008;2022-09-02T15:32:34;22.60;99.90
9201;DHT22;4635;48.686;9.008;2022-09-02T15:35:03;22.70;99.90
9201;DHT22;4635;48.686;9.008;2022-09-02T15:37:39;22.80;1.00
9201;DHT22;4635;48.686;9.008;2022-09-02T15:40:12;22.90;1.00
9201;DHT22;4635;48.686;9.008;2022-09-02T15:42:42;22.80;1.00
9201;DHT22;4635;48.686;9.008;2022-09-02T15:45:13;22.80;99.90
9201;DHT22;4635;48.686;9.008;2022-09-02T15:47:56;22.80;4.10
9201;DHT22;4635;48.686;9.008;2022-09-02T15:50:23;22.70;99.90
9201;DHT22;4635;48.686;9.008;2022-09-02T15:53:39;22.50;1.00
9201;DHT22;4635;48.686;9.008;2022-09-02T15:56:22;22.40;94.40
9201;DHT22;4635;48.686;9.008;2022-09-02T15:58:56;21.40;1.00
9201;DHT22;4635;48.686;9.008;2022-09-02T16:01:48;22.30;1.00
9201;DHT22;4635;48.686;9.008;2022-09-02T16:04:32;22.40;99.90
9201;DHT22;4635;48.686;9.008;2022-09-02T16:07:06;22.50;1.00
9201;DHT22;4635;48.686;9.008;2022-09-02T16:09:38;22.50;99.90
9201;DHT22;4635;48.686;9.008;2022-09-02T16:12:08;22.60;1.00
9201;DHT22;4635;48.686;9.008;2022-09-02T16:14:38;22.70;1.00
9201;DHT22;4635;48.686;9.008;2022-09-02T16:17:07;22.60;1.00
9201;DHT22;4635;48.686;9.008;2022-09-02T16:19:35;22.40;1.00
9201;DHT22;4635;48.686;9.008;2022-09-02T16:22:09;22.40;1.00
9201;DHT22;4635;48.686;9.008;2022-09-02T16:24:40;22.40;99.90
9201;DHT22;4635;48.686;9.008;2022-09-02T16:27:11;22.40;99.90
9201;DHT22;4635;48.686;9.008;2022-09-02T16:29:45;22.30;1.00
9201;DHT22;4635;48.686;9.008;2022-09-02T16:32:17;22.20;99.90
9201;DHT22;4635;48.686;9.008;2022-09-02T16:34:47;22.40;99.90
9201;DHT22;4635;48.686;9.008;2022-09-02T16:37:14;22.20;99.90
9201;DHT22;4635;48.686;9.008;2022-09-02T16:39:45;22.30;1.00
9201;DHT22;4635;48.686;9.008;2022-09-02T16:42:17;22.30;1.00
9201;DHT22;4635;48.686;9.008;2022-09-02T16:44:46;22.30;1.00
9201;DHT22;4635;48.686;9.008;2022-09-02T16:47:16;22.30;1.00
9201;DHT22;4635;48.686;9.008;2022-09-02T16:49:44;22.30;1.00
9201;DHT22;4635;48.686;9.008;2022-09-02T16:52:12;22.20;99.90
9201;DHT22;4635;48.686;9.008;2022-09-02T16:54:39;22.00;1.00
9201;DHT22;4635;48.686;9.008;2022-09-02T16:57:08;22.00;99.90
9201;DHT22;4635;48.686;9.008;2022-09-02T16:59:38;22.00;99.90
9201;DHT22;4635;48.686;9.008;2022-09-02T17:02:06;21.90;1.00
9201;DHT22;4635;48.686;9.008;2022-09-02T17:04:33;21.80;1.00
9201;DHT22;4635;48.686;9.008;2022-09-02T17:07:01;21.70;1.00
9201;DHT22;4635;48.686;9.008;2022-09-02T17:09:28;21.60;1.00
9201;DHT22;4635;48.686;9.008;2022-09-02T17:11:55;21.50;1.00
9201;DHT22;4635;48.686;9.008;2022-09-02T17:14:24;21.10;91.40
9201;DHT22;4635;48.686;9.008;2022-09-02T17:16:52;21.40;1.00
9201;DHT22;4635;48.686;9.008;2022-09-02T17:19:20;21.30;99.90
9201;DHT22;4635;48.686;9.008;2022-09-02T17:21:50;21.30;99.90
9201;DHT22;4635;48.686;9.008;2022-09-02T17:24:20;21.30;99.90